Time;durP1;ratioP1;P1;durP2;ratioP2;P2;SDS_P1;SDS_P2;PMS_P1;PMS_P2;Temp;Humidity;BMP_temperature;BMP_pressure;BME280_temperature;BME280_humidity;BME280_pressure;Samples;Min_cycle;Max_cycle;Signal;HPM_P1;HPM_P2
2023/05/03 00:02:06;;;;;;;7.30;2.50;;;;;;;15.00;34.76;102306.41;5039627;27;97090;-76
2023/05/03 00:04:33;;;;;;;4.03;1.70;;;;;;;15.20;34.24;102305.81;5047618;27;96904;-77
2023/05/03 00:06:59;;;;;;;4.25;1.35;;;;;;;15.09;34.43;102307.94;5044722;27;98939;-76
2023/05/03 00:09:26;;;;;;;6.95;1.65;;;;;;;15.01;34.53;102302.84;5039947;27;98774;-75
2023/05/03 00:11:53;;;;;;;7.25;1.40;;;;;;;14.74;34.84;102316.94;5043269;27;96930;-76
2023/05/03 00:14:20;;;;;;;4.65;1.58;;;;;;;14.79;34.92;102317.66;5045640;27;97765;-78
2023/05/03 00:16:47;;;;;;;8.85;1.73;;;;;;;14.71;35.14;102317.00;5040106;27;99176;-75
2023/05/03 00:19:13;;;;;;;4.18;1.67;;;;;;;14.61;35.13;102312.88;5054241;27;98777;-76
2023/05/03 00:21:39;;;;;;;6.30;1.42;;;;;;;14.51;35.48;102316.69;5055257;27;96718;-75
2023/05/03 00:24:06;;;;;;;3.67;1.65;;;;;;;14.58;35.41;102304.94;5049790;27;96920;-76
2023/05/03 00:26:32;;;;;;;5.45;1.75;;;;;;;14.52;35.63;102313.97;5044285;27;101759;-75
2023/05/03 00:28:59;;;;;;;7.80;1.50;;;;;;;14.53;35.87;102312.19;5049869;27;98946;-75
2023/05/03 00:31:27;;;;;;;4.68;1.70;;;;;;;14.47;35.98;102313.25;5043122;27;97030;-77
2023/05/03 00:33:53;;;;;;;5.15;1.58;;;;;;;14.50;36.00;102313.16;5038530;27;96866;-77
2023/05/03 00:36:20;;;;;;;3.67;1.45;;;;;;;14.70;35.63;102304.66;5039639;27;99283;-77
2023/05/03 00:38:47;;;;;;;5.93;1.60;;;;;;;14.60;35.72;102309.34;5040841;27;97774;-76
2023/05/03 00:41:13;;;;;;;5.20;1.88;;;;;;;14.68;36.14;102312.66;5043643;27;98815;-77
2023/05/03 00:43:39;;;;;;;8.50;1.50;;;;;;;14.81;35.82;102317.63;5050343;27;97165;-76
2023/05/03 00:46:07;;;;;;;4.50;1.70;;;;;;;14.66;35.91;102314.47;5045294;27;98939;-78
2023/05/03 00:48:34;;;;;;;4.63;1.75;;;;;;;14.28;36.69;102320.81;5040656;27;99033;-77
2023/05/03 00:51:03;;;;;;;6.80;1.67;;;;;;;14.30;36.92;102320.78;5052899;27;97053;-77
2023/05/03 00:53:30;;;;;;;25.42;12.35;;;;;;;14.43;36.60;102311.59;5042563;27;96880;-77
2023/05/03 00:56:00;;;;;;;6.72;2.97;;;;;;;14.56;36.39;102307.69;5043130;27;99397;-76
2023/05/03 00:58:26;;;;;;;8.98;1.60;;;;;;;14.36;36.56;102316.16;5047392;27;101996;-76
2023/05/03 01:00:53;;;;;;;5.35;1.58;;;;;;;14.34;36.79;102311.78;5044090;27;97320;-76
2023/05/03 01:03:19;;;;;;;8.85;1.92;;;;;;;14.31;36.88;102317.16;5052846;27;97633;-77
2023/05/03 01:05:54;;;;;;;7.07;1.75;;;;;;;14.23;37.20;102316.53;5045671;27;97805;-78
2023/05/03 01:08:27;;;;;;;4.28;1.77;;;;;;;14.14;37.42;102320.28;5042379;27;99022;-76
2023/05/03 01:11:02;;;;;;;7.00;1.52;;;;;;;14.05;37.81;102317.84;5046687;27;98834;-76
2023/05/03 01:13:38;;;;;;;6.85;1.65;;;;;;;14.08;38.00;102309.81;5044273;27;97242;-76
2023/05/03 01:16:11;;;;;;;4.15;1.50;;;;;;;14.17;37.84;102312.25;5047102;27;99455;-77
2023/05/03 01:18:42;;;;;;;8.68;2.10;;;;;;;14.18;37.58;102316.63;5045714;27;98827;-77
2023/05/03 01:21:12;;;;;;;7.55;1.83;;;;;;;14.07;37.91;102315.16;5049729;27;96865;-77
2023/05/03 01:23:43;;;;;;;12.73;1.70;;;;;;;13.86;38.29;102325.41;5049870;27;96860;-77
2023/05/03 01:26:20;;;;;;;5.53;1.40;;;;;;;13.87;38.45;102321.84;5041648;27;99330;-76
2023/05/03 01:28:46;;;;;;;6.25;2.10;;;;;;;13.81;38.56;102329.94;5044938;27;97730;-76
2023/05/03 01:31:17;;;;;;;6.47;1.60;;;;;;;13.62;39.06;102328.63;5050208;27;96701;-77
2023/05/03 01:33:48;;;;;;;6.53;1.58;;;;;;;13.62;39.09;102331.28;5042752;27;96873;-77
2023/05/03 01:36:22;;;;;;;4.57;1.88;;;;;;;13.42;39.64;102325.56;5047434;27;99393;-77
2023/05/03 01:38:50;;;;;;;3.72;1.52;;;;;;;13.22;39.89;102328.66;5042172;27;98666;-75
2023/05/03 01:41:21;;;;;;;8.35;1.60;;;;;;;13.32;39.77;102321.38;5051870;27;96783;-73
2023/05/03 01:43:48;;;;;;;4.38;1.60;;;;;;;13.31;39.62;102320.50;5051516;27;96927;-73
2023/05/03 01:46:15;;;;;;;6.75;1.98;;;;;;;13.42;39.63;102328.22;5051575;27;99415;-71
2023/05/03 01:48:41;;;;;;;5.30;1.40;;;;;;;13.39;39.64;102320.34;5047947;27;98717;-72
2023/05/03 01:51:08;;;;;;;7.75;1.60;;;;;;;13.17;40.34;102322.56;5050756;27;96969;-71
2023/05/03 01:53:35;;;;;;;6.63;1.60;;;;;;;13.55;39.37;102324.38;5050061;27;96956;-71
2023/05/03 01:56:01;;;;;;;4.07;1.70;;;;;;;13.21;40.52;102329.56;5044426;27;97910;-72
2023/05/03 01:58:29;;;;;;;5.10;1.55;;;;;;;13.41;40.00;102329.13;5052852;27;98936;-72
2023/05/03 02:00:56;;;;;;;6.13;1.65;;;;;;;13.45;39.95;102325.50;5056773;27;96791;-77
2023/05/03 02:03:23;;;;;;;4.85;1.70;;;;;;;13.53;39.58;102326.19;5053174;27;96818;-76
2023/05/03 02:05:49;;;;;;;9.27;1.60;;;;;;;13.67;39.22;102325.88;5042014;27;99418;-76
2023/05/03 02:08:16;;;;;;;8.43;2.17;;;;;;;13.49;39.75;102330.69;5050628;27;99269;-75
2023/05/03 02:10:43;;;;;;;6.50;1.75;;;;;;;13.56;39.63;102327.00;5038776;27;96836;-75
2023/05/03 02:13:10;;;;;;;4.28;1.60;;;;;;;13.41;39.99;102331.78;5051577;27;96910;-73
2023/05/03 02:15:37;;;;;;;7.38;1.73;;;;;;;13.50;39.79;102334.22;5050048;27;97685;-72
2023/05/03 02:18:04;;;;;;;8.50;1.88;;;;;;;13.42;39.92;102337.06;5038107;27;100723;-72
2023/05/03 02:20:35;;;;;;;8.38;1.50;;;;;;;13.48;39.72;102346.66;5042835;27;96858;-74
2023/05/03 02:23:01;;;;;;;10.70;2.33;;;;;;;13.23;40.39;102338.38;5046831;27;97134;-73
2023/05/03 02:25:28;;;;;;;5.35;2.10;;;;;;;13.21;40.17;102339.28;5046545;27;98928;-76
2023/05/03 02:27:54;;;;;;;9.20;1.55;;;;;;;13.33;40.00;102352.28;5043874;27;97982;-73
2023/05/03 02:30:21;;;;;;;7.03;1.58;;;;;;;13.24;40.50;102355.16;5048472;27;96888;-75
2023/05/03 02:32:48;;;;;;;4.65;1.50;;;;;;;13.38;39.87;102348.66;5042119;27;96966;-76
2023/05/03 02:35:15;;;;;;;8.70;2.53;;;;;;;13.54;39.65;102354.50;5049547;27;98913;-76
2023/05/03 02:37:41;;;;;;;6.90;1.45;;;;;;;13.04;40.59;102352.88;5035361;27;100503;-77
2023/05/03 02:40:09;;;;;;;5.85;1.85;;;;;;;13.17;40.70;102362.38;5044082;27;96721;-76
2023/05/03 02:42:36;;;;;;;7.82;1.58;;;;;;;12.97;40.88;102359.22;5044892;27;97306;-76
2023/05/03 02:45:06;;;;;;;5.80;1.80;;;;;;;12.85;41.44;102351.50;5045135;27;99124;-76
2023/05/03 02:47:32;;;;;;;4.18;1.27;;;;;;;13.13;40.82;102352.72;5047309;27;99331;-74
2023/05/03 02:50:00;;;;;;;2.60;1.25;;;;;;;12.90;41.18;102354.94;5050872;27;97564;-74
2023/05/03 02:52:26;;;;;;;7.03;1.77;;;;;;;12.59;41.53;102362.63;5049584;27;97149;-73
2023/05/03 02:54:52;;;;;;;7.22;1.60;;;;;;;12.69;41.99;102365.06;5047884;27;98757;-72
2023/05/03 02:57:18;;;;;;;11.00;2.45;;;;;;;12.63;42.07;102370.47;5043869;27;100547;-74
2023/05/03 02:59:45;;;;;;;8.35;2.00;;;;;;;12.71;41.76;102355.31;5050830;27;96942;-73
2023/05/03 03:02:11;;;;;;;8.10;1.67;;;;;;;12.55;41.84;102368.84;5047151;27;96999;-72
2023/05/03 03:04:38;;;;;;;7.82;1.95;;;;;;;12.66;41.79;102362.47;5051872;27;99371;-74
2023/05/03 03:07:05;;;;;;;7.72;1.95;;;;;;;12.65;41.83;102378.41;5051117;27;98815;-73
2023/05/03 03:09:32;;;;;;;8.25;1.60;;;;;;;12.79;42.01;102373.72;5041733;27;97875;-73
2023/05/03 03:11:58;;;;;;;5.18;1.90;;;;;;;12.83;41.63;102367.44;5046214;27;96809;-72
2023/05/03 03:14:25;;;;;;;8.93;2.05;;;;;;;12.58;41.85;102374.13;5039848;27;97985;-72
2023/05/03 03:16:51;;;;;;;8.68;1.70;;;;;;;12.35;42.49;102370.06;5043309;27;97853;-72
2023/05/03 03:19:18;;;;;;;10.18;2.45;;;;;;;12.86;41.12;102369.19;5054052;27;96961;-72
2023/05/03 03:21:44;;;;;;;17.05;2.20;;;;;;;12.85;41.29;102372.72;5050040;27;96862;-73
2023/05/03 03:24:12;;;;;;;8.65;2.00;;;;;;;12.64;41.85;102376.66;5049012;27;99019;-73
2023/05/03 03:26:39;;;;;;;8.30;1.55;;;;;;;12.66;41.86;102380.16;5051656;27;99685;-73
2023/05/03 03:29:08;;;;;;;9.27;1.90;;;;;;;12.62;42.21;102381.09;5048126;27;96864;-73
2023/05/03 03:31:35;;;;;;;9.30;1.80;;;;;;;12.67;41.78;102381.88;5045652;27;96854;-72
2023/05/03 03:34:01;;;;;;;6.18;1.70;;;;;;;12.31;42.39;102383.41;5042250;27;99133;-72
2023/05/03 03:36:27;;;;;;;9.55;1.83;;;;;;;12.47;42.07;102381.41;5044332;27;98959;-73
2023/05/03 03:38:54;;;;;;;7.55;2.20;;;;;;;12.50;42.24;102382.19;5050498;27;98602;-74
2023/05/03 03:41:22;;;;;;;5.15;1.75;;;;;;;12.58;42.14;102393.56;5051724;27;96994;-73
2023/05/03 03:43:48;;;;;;;8.15;2.15;;;;;;;12.66;41.90;102388.13;5048253;27;98949;-73
2023/05/03 03:46:15;;;;;;;7.60;1.90;;;;;;;12.58;42.06;102392.69;5051849;27;99047;-73
2023/05/03 03:48:41;;;;;;;11.70;2.20;;;;;;;12.45;42.07;102388.50;5048050;27;101482;-72
2023/05/03 03:51:07;;;;;;;7.10;2.08;;;;;;;12.33;42.37;102402.84;5044161;27;96987;-73
2023/05/03 03:53:33;;;;;;;5.32;1.60;;;;;;;12.42;42.29;102399.13;5042472;27;101626;-73
2023/05/03 03:56:00;;;;;;;7.45;2.28;;;;;;;12.07;43.17;102405.91;5049719;27;98001;-72
2023/05/03 03:58:28;;;;;;;6.57;1.92;;;;;;;12.03;43.24;102409.47;5049976;27;98369;-72
2023/05/03 04:00:54;;;;;;;11.57;1.70;;;;;;;12.04;43.16;102402.41;5045487;27;96989;-72
2023/05/03 04:03:21;;;;;;;9.82;1.73;;;;;;;11.91;43.69;102412.31;5046223;27;99085;-72
2023/05/03 04:05:47;;;;;;;7.75;1.80;;;;;;;11.69;43.97;102408.19;5044553;27;101353;-73
2023/05/03 04:08:14;;;;;;;7.85;1.85;;;;;;;11.95;43.63;102408.72;5045612;27;96767;-74
2023/05/03 04:10:40;;;;;;;11.30;1.90;;;;;;;11.82;43.94;102415.09;5044531;27;96894;-72
2023/05/03 04:13:07;;;;;;;9.38;1.80;;;;;;;11.68;43.80;102417.03;5043117;27;99037;-73
2023/05/03 04:15:35;;;;;;;7.05;1.50;;;;;;;11.96;43.32;102426.38;5040293;27;101679;-72
2023/05/03 04:18:02;;;;;;;10.48;2.67;;;;;;;12.05;43.10;102426.25;5039679;27;96802;-71
2023/05/03 04:20:28;;;;;;;12.20;2.53;;;;;;;12.00;43.13;102428.09;5047539;27;97141;-71
2023/05/03 04:22:55;;;;;;;7.57;2.13;;;;;;;11.83;43.64;102425.66;5048312;27;98737;-71
2023/05/03 04:25:21;;;;;;;8.35;1.48;;;;;;;11.79;43.72;102429.25;5046448;27;99178;-71
2023/05/03 04:27:47;;;;;;;9.52;1.88;;;;;;;11.85;43.60;102439.78;5048773;27;96872;-74
2023/05/03 04:30:14;;;;;;;9.82;1.60;;;;;;;12.05;42.97;102439.50;5053466;27;97125;-73
2023/05/03 04:32:42;;;;;;;10.30;1.92;;;;;;;12.15;42.78;102442.84;5038282;27;99378;-73
2023/05/03 04:35:11;;;;;;;7.78;1.90;;;;;;;12.12;43.05;102449.09;5048062;27;99144;-72
2023/05/03 04:37:38;;;;;;;9.13;2.53;;;;;;;11.95;43.12;102444.03;5047959;27;97015;-72
2023/05/03 04:40:08;;;;;;;12.35;1.85;;;;;;;11.94;43.27;102449.38;5049639;27;96876;-74
2023/05/03 04:42:35;;;;;;;7.65;2.03;;;;;;;12.13;43.03;102456.16;5048419;27;99520;-73
2023/05/03 04:45:03;;;;;;;6.78;1.50;;;;;;;12.11;42.69;102452.66;5050932;27;97617;-73
2023/05/03 04:47:29;;;;;;;10.75;1.85;;;;;;;12.27;42.47;102443.53;5046056;27;97274;-72
2023/05/03 04:49:57;;;;;;;8.57;1.77;;;;;;;12.40;41.87;102453.97;5040304;27;97901;-74
2023/05/03 04:52:23;;;;;;;6.88;1.80;;;;;;;12.74;41.45;102456.03;5041980;27;99433;-71
2023/05/03 04:54:49;;;;;;;8.20;2.10;;;;;;;12.93;40.76;102461.03;5036985;27;99672;-72
2023/05/03 04:57:16;;;;;;;7.47;1.88;;;;;;;12.84;40.78;102458.53;5045864;27;96717;-73
2023/05/03 04:59:42;;;;;;;12.48;2.30;;;;;;;12.66;41.22;102463.25;5037976;27;96827;-73
2023/05/03 05:02:08;;;;;;;8.70;1.90;;;;;;;12.55;41.42;102464.31;5044092;27;99244;-72
2023/05/03 05:04:35;;;;;;;9.40;1.60;;;;;;;12.35;42.05;102465.50;5039796;27;97458;-71
2023/05/03 05:07:03;;;;;;;8.00;1.98;;;;;;;12.53;41.54;102466.13;5047787;27;96681;-71
2023/05/03 05:09:47;;;;;;;5.95;2.13;;;;;;;12.52;41.98;102472.34;5053396;27;97800;-71
2023/05/03 05:12:14;;;;;;;4.00;1.45;;;;;;;12.62;41.43;102463.31;5046802;27;97714;-76
2023/05/03 05:14:40;;;;;;;6.15;2.08;;;;;;;12.62;41.32;102465.97;5046387;27;100011;-77
2023/05/03 05:17:06;;;;;;;11.32;2.45;;;;;;;13.08;40.58;102461.59;5043410;27;97055;-77
2023/05/03 05:19:33;;;;;;;5.68;2.03;;;;;;;13.06;40.56;102465.22;5037233;27;98759;-75
2023/05/03 05:22:00;;;;;;;7.13;2.30;;;;;;;13.06;40.31;102460.75;5040500;27;99248;-75
2023/05/03 05:24:27;;;;;;;12.02;2.20;;;;;;;13.10;40.51;102464.22;5045848;27;98667;-76
2023/05/03 05:26:54;;;;;;;9.50;2.80;;;;;;;12.96;40.60;102458.28;5044289;27;96818;-75
2023/05/03 05:29:20;;;;;;;13.00;2.38;;;;;;;13.14;40.49;102461.50;5040330;27;97005;-75
2023/05/03 05:31:47;;;;;;;12.68;2.65;;;;;;;13.45;39.95;102467.13;5046855;27;98958;-76
2023/05/03 05:34:13;;;;;;;9.23;2.63;;;;;;;14.14;39.08;102474.47;5048581;27;99390;-76
2023/05/03 05:36:40;;;;;;;9.63;2.95;;;;;;;15.16;37.14;102475.44;5043789;27;97132;-76
2023/05/03 05:39:06;;;;;;;8.00;3.03;;;;;;;15.30;36.01;102483.06;5042826;27;97316;-77
2023/05/03 05:41:34;;;;;;;9.30;2.53;;;;;;;14.60;36.88;102478.72;5041293;27;99732;-76
2023/05/03 05:44:01;;;;;;;8.95;2.20;;;;;;;14.56;37.18;102488.56;5051934;27;101144;-77
2023/05/03 05:46:27;;;;;;;7.75;1.80;;;;;;;14.09;37.89;102481.69;5051444;27;97243;-76
2023/05/03 05:48:53;;;;;;;7.82;2.20;;;;;;;13.82;38.53;102477.84;5051304;27;97215;-76
2023/05/03 05:51:20;;;;;;;13.20;2.28;;;;;;;13.75;38.79;102486.84;5044935;27;99354;-76
2023/05/03 05:53:46;;;;;;;6.63;1.70;;;;;;;13.53;39.08;102488.19;5049189;27;98922;-77
2023/05/03 05:56:13;;;;;;;6.15;1.90;;;;;;;14.12;38.36;102489.56;5043918;27;96788;-77
2023/05/03 05:58:41;;;;;;;9.95;1.80;;;;;;;14.13;38.26;102491.31;5043888;27;96977;-75
2023/05/03 06:01:08;;;;;;;6.93;1.50;;;;;;;14.57;37.28;102492.13;5041815;27;99135;-76
2023/05/03 06:03:34;;;;;;;9.05;1.80;;;;;;;14.32;37.63;102497.09;5043009;27;99658;-76
2023/05/03 06:06:00;;;;;;;9.57;1.40;;;;;;;14.36;37.74;102496.13;5048473;27;97081;-77
2023/05/03 06:08:27;;;;;;;6.53;1.55;;;;;;;14.37;37.58;102487.25;5038273;27;96940;-79
2023/05/03 06:10:53;;;;;;;9.85;1.80;;;;;;;14.34;37.81;102492.63;5042737;27;98881;-79
2023/05/03 06:13:20;;;;;;;5.53;1.98;;;;;;;14.49;37.28;102499.38;5044652;27;99107;-77
2023/05/03 06:15:48;;;;;;;8.05;1.90;;;;;;;14.72;36.71;102505.00;5043955;27;96794;-78
2023/05/03 06:18:14;;;;;;;11.05;1.90;;;;;;;14.77;36.52;102506.63;5052553;27;97591;-78
2023/05/03 06:20:41;;;;;;;5.82;2.08;;;;;;;15.02;36.26;102506.03;5042119;27;100753;-76
2023/05/03 06:23:08;;;;;;;10.23;3.25;;;;;;;15.07;36.10;102505.00;5053641;27;99164;-75
2023/05/03 06:25:35;;;;;;;10.60;3.03;;;;;;;15.29;35.91;102507.97;5042538;27;96766;-77
2023/05/03 06:28:02;;;;;;;8.60;2.28;;;;;;;15.49;35.48;102508.25;5045930;27;96981;-76
2023/05/03 06:30:28;;;;;;;8.80;1.70;;;;;;;15.46;35.49;102503.03;5043879;27;99495;-76
2023/05/03 06:32:56;;;;;;;6.97;1.70;;;;;;;15.44;35.69;102496.88;5045055;27;98748;-76
2023/05/03 06:35:22;;;;;;;5.57;1.65;;;;;;;16.16;34.18;102503.66;5039816;27;96709;-77
2023/05/03 06:37:52;;;;;;;7.28;1.50;;;;;;;16.21;33.83;102501.69;5046631;27;96895;-76
2023/05/03 06:40:18;;;;;;;8.73;1.40;;;;;;;16.67;33.09;102500.28;5048415;27;100680;-76
2023/05/03 06:42:45;;;;;;;7.55;1.60;;;;;;;16.18;33.42;102499.16;5042811;27;99293;-73
2023/05/03 06:45:12;;;;;;;11.70;1.33;;;;;;;15.80;34.29;102496.78;5050283;27;97171;-76
2023/05/03 06:47:38;;;;;;;6.90;1.52;;;;;;;15.80;34.22;102507.44;5054855;27;96907;-76
2023/05/03 06:50:07;;;;;;;6.35;1.30;;;;;;;15.70;33.97;102500.59;5044868;27;100080;-76
2023/05/03 06:52:34;;;;;;;5.75;1.70;;;;;;;15.67;34.30;102508.72;5047099;27;98809;-77
2023/05/03 06:55:00;;;;;;;12.07;1.85;;;;;;;15.15;35.05;102511.00;5044903;27;96874;-77
2023/05/03 06:57:27;;;;;;;7.65;1.75;;;;;;;15.47;34.67;102494.13;5043815;27;96812;-75
2023/05/03 06:59:53;;;;;;;5.38;1.15;;;;;;;16.22;33.39;102506.13;5043291;27;99280;-76
2023/05/03 07:02:20;;;;;;;6.18;1.42;;;;;;;16.24;32.76;102503.41;5042299;27;99106;-76
2023/05/03 07:04:46;;;;;;;10.50;2.15;;;;;;;15.84;33.71;102496.63;5038665;27;96877;-76
2023/05/03 07:07:15;;;;;;;8.63;1.55;;;;;;;15.81;33.96;102506.53;5051272;27;96810;-76
2023/05/03 07:09:41;;;;;;;11.05;1.40;;;;;;;16.45;32.82;102499.19;5037774;27;100594;-75
2023/05/03 07:12:07;;;;;;;5.38;1.48;;;;;;;16.76;32.17;102499.97;5042571;27;101634;-76
2023/05/03 07:14:34;;;;;;;6.05;1.60;;;;;;;17.46;31.16;102495.69;5047312;27;97597;-76
2023/05/03 07:17:01;;;;;;;6.63;1.42;;;;;;;17.56;30.65;102493.56;5042830;27;97643;-76
2023/05/03 07:19:28;;;;;;;9.65;1.52;;;;;;;17.79;30.06;102500.72;5043692;27;99159;-76
2023/05/03 07:21:55;;;;;;;5.82;1.63;;;;;;;17.66;29.43;102505.66;5044583;27;99282;-76
2023/05/03 07:24:23;;;;;;;6.00;1.40;;;;;;;17.95;29.21;102507.25;5046578;27;96710;-79
2023/05/03 07:26:50;;;;;;;7.68;1.63;;;;;;;17.77;29.22;102506.16;5049407;27;97216;-77
2023/05/03 07:29:16;;;;;;;5.13;1.40;;;;;;;17.89;29.42;102499.47;5035408;27;98986;-77
2023/05/03 07:31:43;;;;;;;7.78;1.38;;;;;;;17.89;29.33;102497.66;5050427;27;98999;-77
2023/05/03 07:34:10;;;;;;;6.88;1.65;;;;;;;17.99;29.32;102508.00;5041485;27;97351;-77
2023/05/03 07:36:36;;;;;;;9.52;1.42;;;;;;;17.54;29.58;102506.09;5042850;27;96804;-77
2023/05/03 07:39:03;;;;;;;6.70;1.10;;;;;;;17.34;30.07;102503.28;5037938;27;98887;-77
2023/05/03 07:41:31;;;;;;;4.60;1.10;;;;;;;16.72;30.55;102503.66;5047999;27;98966;-76
2023/05/03 07:43:57;;;;;;;3.78;1.25;;;;;;;16.96;30.21;102501.94;5048235;27;96851;-74
2023/05/03 07:46:24;;;;;;;5.40;1.70;;;;;;;17.47;29.62;102493.88;5037125;27;97147;-73
2023/05/03 07:48:50;;;;;;;6.45;1.60;;;;;;;17.32;29.59;102503.34;5043945;27;99031;-73
2023/05/03 07:51:17;;;;;;;11.55;2.20;;;;;;;17.61;29.29;102496.09;5054009;27;96709;-73
2023/05/03 07:53:43;;;;;;;8.27;2.08;;;;;;;17.15;29.63;102497.72;5048461;27;96983;-73
2023/05/03 07:56:09;;;;;;;7.32;2.85;;;;;;;17.49;28.89;102494.72;5042844;27;97346;-73
2023/05/03 07:58:37;;;;;;;9.25;1.70;;;;;;;17.42;29.33;102501.19;5039138;27;99253;-74
2023/05/03 08:01:04;;;;;;;9.63;1.40;;;;;;;17.36;29.21;102496.09;5036490;27;100394;-73
2023/05/03 08:03:30;;;;;;;8.18;1.92;;;;;;;17.47;29.26;102492.09;5041724;27;101255;-73
2023/05/03 08:05:56;;;;;;;8.25;1.52;;;;;;;17.96;28.32;102502.78;5044686;27;97415;-74
2023/05/03 08:08:23;;;;;;;4.40;1.40;;;;;;;18.16;27.91;102492.19;5039755;27;98291;-73
2023/05/03 08:10:52;;;;;;;5.75;1.75;;;;;;;18.45;27.53;102491.88;5038535;27;99341;-74
2023/05/03 08:13:18;;;;;;;5.72;1.70;;;;;;;18.51;27.78;102498.81;5047260;27;96887;-73
2023/05/03 08:15:46;;;;;;;8.48;1.75;;;;;;;17.96;28.21;102481.38;5041513;27;97010;-73
2023/05/03 08:18:12;;;;;;;4.85;1.45;;;;;;;18.22;28.33;102486.59;5042162;27;97721;-73
2023/05/03 08:20:39;;;;;;;10.93;1.88;;;;;;;18.36;27.76;102491.38;5045035;27;99183;-73
2023/05/03 08:23:05;;;;;;;7.43;1.38;;;;;;;17.92;28.58;102492.19;5045563;27;97159;-74
2023/05/03 08:25:32;;;;;;;9.32;1.77;;;;;;;17.77;28.60;102487.44;5046138;27;96875;-73
2023/05/03 08:27:58;;;;;;;8.18;2.35;;;;;;;17.46;29.03;102484.13;5042697;27;99203;-73
2023/05/03 08:30:25;;;;;;;6.70;1.45;;;;;;;17.77;28.45;102483.91;5043782;27;101473;-73
2023/05/03 08:32:53;;;;;;;7.45;1.88;;;;;;;17.90;28.59;102482.50;5043744;27;97257;-73
2023/05/03 08:35:20;;;;;;;7.57;1.52;;;;;;;18.44;28.27;102490.16;5045016;27;97474;-73
2023/05/03 08:37:46;;;;;;;4.10;1.98;;;;;;;18.43;27.93;102488.41;5040275;27;100080;-74
2023/05/03 08:40:14;;;;;;;3.72;1.55;;;;;;;18.00;28.18;102488.34;5047758;27;101859;-74
2023/05/03 08:42:42;;;;;;;9.82;1.90;;;;;;;18.12;28.34;102482.50;5041416;27;97462;-75
2023/05/03 08:45:10;;;;;;;7.43;1.85;;;;;;;17.84;28.40;102488.09;5043173;27;97388;-73
2023/05/03 08:47:39;;;;;;;11.02;1.63;;;;;;;17.83;28.65;102484.53;5031110;27;99214;-74
2023/05/03 08:50:09;;;;;;;6.68;1.63;;;;;;;17.81;28.91;102489.06;5037965;27;101238;-75
2023/05/03 08:52:36;;;;;;;10.77;1.60;;;;;;;17.60;29.11;102495.19;5050359;27;97266;-77
2023/05/03 08:55:03;;;;;;;7.25;1.67;;;;;;;17.60;29.13;102499.66;5046196;27;96788;-78
2023/05/03 08:57:30;;;;;;;6.15;1.50;;;;;;;17.66;28.81;102494.97;5035936;27;98692;-77
2023/05/03 08:59:59;;;;;;;5.97;1.55;;;;;;;18.03;28.57;102499.81;5044997;27;98806;-78
2023/05/03 09:02:26;;;;;;;10.52;2.00;;;;;;;18.29;28.02;102493.44;5042044;27;96861;-78
2023/05/03 09:04:53;;;;;;;9.90;2.20;;;;;;;18.47;27.95;102498.03;5036721;27;98295;-77
2023/05/03 09:07:20;;;;;;;10.02;2.00;;;;;;;18.22;28.04;102497.28;5043995;27;99089;-77
2023/05/03 09:09:47;;;;;;;11.23;1.73;;;;;;;18.51;27.87;102494.28;5036474;27;98847;-77
2023/05/03 09:12:33;;;;;;;5.75;1.60;;;;;;;18.73;27.58;102499.66;5035545;27;96781;-77
2023/05/03 09:14:59;;;;;;;6.63;1.80;;;;;;;17.87;28.46;102490.63;5041564;27;96876;-77
2023/05/03 09:17:26;;;;;;;6.90;2.10;;;;;;;17.71;29.17;102497.50;5040405;27;98183;-77
2023/05/03 09:19:54;;;;;;;9.02;2.00;;;;;;;18.04;28.90;102498.88;5037102;27;98959;-77
2023/05/03 09:22:23;;;;;;;7.78;1.52;;;;;;;18.00;28.17;102496.38;5035813;27;96973;-77
2023/05/03 09:24:53;;;;;;;7.75;1.58;;;;;;;18.05;28.37;102491.75;5042442;27;96875;-76
2023/05/03 09:27:21;;;;;;;7.82;1.60;;;;;;;18.55;27.58;102495.97;5042081;27;99073;-76
2023/05/03 09:29:48;;;;;;;8.45;1.50;;;;;;;17.73;28.42;102498.28;5032647;27;99064;-74
2023/05/03 09:32:15;;;;;;;6.72;1.65;;;;;;;17.85;28.12;102496.03;5041232;27;97558;-77
2023/05/03 09:34:42;;;;;;;6.95;1.48;;;;;;;17.78;28.40;102497.22;5044260;27;96885;-78
2023/05/03 09:37:09;;;;;;;7.82;1.45;;;;;;;18.28;27.69;102497.91;5039239;27;99095;-77
2023/05/03 09:39:37;;;;;;;8.93;1.50;;;;;;;18.41;27.35;102494.72;5040789;27;99016;-77
2023/05/03 09:42:14;;;;;;;6.28;1.63;;;;;;;18.50;27.43;102495.25;5040111;27;97224;-77
2023/05/03 09:44:42;;;;;;;6.10;1.70;;;;;;;18.60;27.44;102496.63;5038772;27;97593;-76
2023/05/03 09:47:10;;;;;;;7.28;1.73;;;;;;;18.53;27.34;102499.59;5034541;27;98637;-76
2023/05/03 09:49:37;;;;;;;6.00;1.73;;;;;;;17.81;27.94;102491.72;5037930;27;98730;-78
2023/05/03 09:52:05;;;;;;;10.63;1.73;;;;;;;18.25;27.61;102491.78;5043517;27;96772;-78
2023/05/03 09:54:31;;;;;;;5.05;1.40;;;;;;;18.58;27.47;102492.25;5041618;27;96941;-77
2023/05/03 09:57:01;;;;;;;6.65;1.65;;;;;;;18.61;27.09;102497.50;5033787;27;98167;-77
2023/05/03 09:59:27;;;;;;;4.10;1.90;;;;;;;18.85;26.33;102491.09;5032700;27;99198;-78
2023/05/03 10:01:57;;;;;;;7.82;1.50;;;;;;;18.90;26.46;102488.25;5040117;27;97471;-77
2023/05/03 10:04:26;;;;;;;7.70;1.45;;;;;;;18.52;27.11;102493.34;5040500;27;97081;-76
2023/05/03 10:06:57;;;;;;;16.30;2.15;;;;;;;18.33;27.26;102487.00;5035683;27;99154;-76
2023/05/03 10:09:30;;;;;;;6.60;1.60;;;;;;;18.28;26.71;102484.53;5031519;27;97823;-76
2023/05/03 10:12:01;;;;;;;8.95;2.03;;;;;;;18.71;26.26;102480.97;5038062;27;98065;-76
2023/05/03 10:14:28;;;;;;;9.45;1.55;;;;;;;18.88;26.24;102485.63;5037388;27;97623;-73
2023/05/03 10:17:00;;;;;;;5.80;1.80;;;;;;;18.96;26.22;102477.28;5036995;27;98735;-76
2023/05/03 10:19:31;;;;;;;8.05;2.67;;;;;;;18.79;26.68;102482.47;5034049;27;97875;-77
2023/05/03 10:22:03;;;;;;;7.10;1.98;;;;;;;18.68;26.78;102486.47;5042918;27;96864;-78
2023/05/03 10:24:30;;;;;;;5.05;1.90;;;;;;;18.54;27.12;102485.28;5040403;27;97500;-76
2023/05/03 10:26:57;;;;;;;7.20;1.85;;;;;;;18.95;26.79;102478.22;5033601;27;99384;-77
2023/05/03 10:29:50;;;;;;;5.80;1.52;;;;;;;19.10;26.62;102477.53;5033269;27;98558;-77
2023/05/03 10:32:38;;;;;;;6.47;1.75;;;;;;;18.77;26.79;102481.69;5037534;27;97482;-77
2023/05/03 10:35:08;;;;;;;8.35;2.25;;;;;;;18.73;27.07;102482.72;5035771;27;100108;-77
2023/05/03 10:37:36;;;;;;;5.93;1.70;;;;;;;18.48;27.69;102482.84;5032788;27;100322;-76
2023/05/03 10:40:12;;;;;;;6.80;1.90;;;;;;;18.29;27.69;102477.38;5042228;27;98855;-76
2023/05/03 10:42:39;;;;;;;4.13;1.30;;;;;;;18.27;27.86;102472.06;5031313;27;98919;-76
2023/05/03 10:45:11;;;;;;;6.75;1.80;;;;;;;18.45;27.79;102481.16;5029123;27;97725;-78
2023/05/03 10:47:39;;;;;;;7.28;1.73;;;;;;;18.45;28.00;102474.94;5024393;27;98881;-77
2023/05/03 10:50:27;;;;;;;10.02;1.80;;;;;;;18.66;27.39;102464.25;5038029;27;99285;-77
2023/05/03 10:52:53;;;;;;;6.88;1.65;;;;;;;18.47;27.55;102471.25;5039646;27;97196;-76
2023/05/03 10:55:23;;;;;;;9.02;1.90;;;;;;;18.24;27.87;102466.00;5041355;27;97431;-77
2023/05/03 10:57:53;;;;;;;8.52;1.77;;;;;;;18.37;28.04;102472.59;5035503;27;98130;-77
2023/05/03 11:00:27;;;;;;;7.50;2.08;;;;;;;18.24;28.07;102457.97;5036890;27;97675;-76
2023/05/03 11:03:13;;;;;;;14.05;1.88;;;;;;;18.28;27.94;102462.25;5035073;27;96801;-76
2023/05/03 11:05:40;;;;;;;4.63;1.98;;;;;;;18.00;28.18;102459.78;5036060;27;96845;-77
2023/05/03 11:08:15;;;;;;;5.35;1.95;;;;;;;17.96;28.20;102451.97;5032938;27;98184;-77
2023/05/03 11:10:44;;;;;;;2.65;1.02;;;;;;;17.95;27.95;102456.44;5037125;27;99798;-79
2023/05/03 11:13:10;;;;;;;4.63;1.30;;;;;;;18.24;27.23;102453.50;5048938;27;97167;-78
2023/05/03 11:15:38;;;;;;;3.53;1.33;;;;;;;18.40;27.76;102456.41;5038811;27;97047;-78
2023/05/03 11:18:06;;;;;;;11.40;1.40;;;;;;;18.16;27.78;102455.59;5038496;27;99041;-77
2023/05/03 11:20:33;;;;;;;7.88;2.05;;;;;;;18.00;28.40;102454.44;5034846;27;98827;-77
2023/05/03 11:23:00;;;;;;;8.63;2.25;;;;;;;18.09;28.63;102458.56;5043447;27;97186;-77
2023/05/03 11:25:26;;;;;;;6.47;1.77;;;;;;;18.18;28.63;102447.50;5044989;27;98587;-78
2023/05/03 11:27:53;;;;;;;2.75;1.13;;;;;;;18.44;28.27;102454.47;5035585;27;99043;-77